• Join FlightAware (Why Join?)
  • Login
  • US Flag 
02:39PM EDT


 

Airport Tracker/Info


-or-


 

Live Flight TrackerFlight Track Log ✈ AAL1459 ✈ 29-Aug-2013 ✈ KBOS - KDFW

Flight Track Log - Related Links

Times and Time Zones

All times are in EDT time to prevent confusion due to time zone crossing. See the AAL1459 flight status page for this flight to view local times or setup timezone preferences in your user account.

Time Position Orientation Groundspeed Altitude Reporting Facility
EDT Latitude Longitude Course Direction KTS MPH feet Rate Location/Type
03:18PM 42.3667 -70.9667 270° West 155 178 1,200  Level KA90
03:19PM 42.3667 -70.9167 90° East 192 221 2,500 1,800 Climbing KA90
03:20PM 42.3340 -70.7280 166° South  Level FlightAware Approximate
03:20PM 42.3833 -70.8167 77° East 246 283 4,900  Level KA90
03:21PM 42.2464 -70.7971 228° Southwest  Level FlightAware Approximate
03:21PM 42.3167 -70.7244 134° Southeast 280 322 8,800  Level Boston Center
03:22PM 42.1855 -70.9284 240° Southwest  Level FlightAware Approximate
03:22PM 42.2422 -70.7714 205° Southwest 257 296 10,700  Level Boston Center
03:23PM 42.1833 -71.0830 270° West  Level FlightAware Approximate
03:23PM 42.2025 -70.9069 248° West 263 303 13,100  Level Boston Center
03:24PM 42.2000 -71.0306 268° West 301 346 15,700 2,520 Climbing Boston Center
03:25PM 42.1956 -71.1847 268° West 349 402 18,300 2,160 Climbing Boston Center
03:26PM 42.1947 -71.3192 270° West 390 449 20,100 1,980 Climbing Boston Center
03:27PM 42.1942 -71.4678 270° West 401 461 22,400 2,340 Climbing Boston Center
03:28PM 42.1869 -71.6331 267° West 406 467 24,800 2,040 Climbing Boston Center
03:29PM 42.1839 -71.7900 269° West 412 474 26,500 1,560 Climbing Boston Center
03:30PM 42.1783 -71.9525 267° West 422 486 28,000 1,440 Climbing Boston Center
03:31PM 42.1769 -72.1181 269° West 432 497 29,400 1,380 Climbing Boston Center
03:32PM 42.1503 -72.2469 254° West 450 518 30,800 1,500 Climbing Boston Center
03:33PM 42.0794 -72.4064 239° Southwest 444 511 32,500 1,500 Climbing Boston Center
03:34PM 42.0128 -72.5519 238° Southwest 449 517 33,900 1,320 Climbing Boston Center
03:35PM 41.9519 -72.6942 240° Southwest 454 522 35,300 1,320 Climbing Boston Center
03:36PM 41.8850 -72.8333 237° Southwest 449 517 36,600 1,080 Climbing Boston Center
03:37PM 41.8219 -72.9694 238° Southwest 449 517 37,500 660 Climbing Boston Center
03:38PM 41.7522 -73.1161 238° Southwest 457 526 38,000 240 Climbing Boston Center
03:39PM 41.6867 -73.2572 238° Southwest 457 526 38,000  Level Boston Center
03:41PM 41.5358 -73.5122 232° Southwest 439 505 38,000  Level New York Center
03:42PM 41.4536 -73.6389 229° Southwest 447 514 38,000  Level New York Center
03:43PM 41.3736 -73.7625 229° Southwest 447 514 38,000  Level New York Center
03:44PM 41.2914 -73.8831 228° Southwest 447 514 38,000 -60 Level New York Center
03:45PM 41.2111 -74.0033 228° Southwest 447 514 37,900  Descending New York Center
03:46PM 41.1306 -74.1292 230° Southwest 458 527 38,000  Climbing New York Center
03:47PM 41.0622 -74.2606 235° Southwest 448 516 38,000  Level New York Center
03:48PM 40.9975 -74.4000 238° Southwest 442 509 38,000  Level New York Center
03:49PM 40.9350 -74.5369 239° Southwest 442 509 38,000 -60 Level New York Center
03:50PM 40.8700 -74.6731 238° Southwest 447 514 37,900  Descending New York Center
03:51PM 40.8050 -74.8119 238° Southwest 442 509 38,000  Climbing New York Center
03:52PM 40.7419 -74.9481 239° Southwest 442 509 38,000  Level New York Center
03:53PM 40.6806 -75.0864 240° Southwest 442 509 38,000  Level New York Center
03:54PM 40.6169 -75.2275 239° Southwest 442 509 38,000  Level New York Center
03:55PM 40.5536 -75.3597 238° Southwest 448 516 38,000  Level New York Center
03:56PM 40.4917 -75.5031 240° Southwest 448 516 38,000 -60 Level New York Center
03:57PM 40.4278 -75.6406 239° Southwest 448 516 37,900  Descending New York Center
03:58PM 40.3703 -75.7672 239° Southwest 448 516 38,000  Climbing New York Center
03:59PM 40.2994 -75.9144 238° Southwest 448 516 38,000  Level New York Center
04:00PM 40.2397 -76.0406 238° Southwest 448 516 38,000  Level New York Center
04:01PM 40.1772 -76.1744 239° Southwest 448 516 38,000  Level New York Center
04:02PM 40.1058 -76.3236 238° Southwest 443 510 38,000  Level New York Center
04:03PM 40.0450 -76.4597 240° Southwest 443 510 38,000  Level New York Center
04:05PM 39.9186 -76.7386 239° Southwest 450 518 38,000  Level Washington Center
04:06PM 39.8442 -76.8858 237° Southwest 450 518 38,000  Level Washington Center
04:07PM 39.7803 -77.0169 238° Southwest 445 512 38,000  Level Washington Center
04:08PM 39.7161 -77.1533 239° Southwest 445 512 38,000  Level Washington Center
04:09PM 39.6539 -77.2842 238° Southwest 445 512 38,000  Level Washington Center
04:10PM 39.5914 -77.4172 239° Southwest 445 512 38,000  Level Washington Center
04:11PM 39.5311 -77.5503 240° Southwest 445 512 38,000  Level Washington Center
04:12PM 39.4683 -77.6803 238° Southwest 439 505 38,000  Level Washington Center
04:13PM 39.4058 -77.8103 238° Southwest 439 505 38,000  Level Washington Center
04:14PM 39.3469 -77.9425 240° Southwest 439 505 38,000  Level Washington Center
04:15PM 39.3006 -78.0672 244° Southwest 434 499 38,000  Level Washington Center
04:16PM 39.2458 -78.2019 242° Southwest 434 499 38,000  Level Washington Center
04:17PM 39.1928 -78.3367 243° Southwest 429 494 38,000  Level Washington Center
04:18PM 39.1375 -78.4736 243° Southwest 429 494 38,000  Level Washington Center
04:19PM 39.0819 -78.6053 242° Southwest 429 494 38,000  Level Washington Center
04:20PM 39.0286 -78.7419 243° Southwest 429 494 38,000  Level Washington Center
04:21PM 38.9747 -78.8786 243° Southwest 429 494 38,000  Level Washington Center
04:22PM 38.9169 -79.0094 240° Southwest 429 494 38,000  Level Washington Center
04:23PM 38.8608 -79.1453 242° Southwest 429 494 38,000  Level Washington Center
04:24PM 38.8253 -79.2875 252° West 429 494 38,000  Level Washington Center
04:25PM 38.8000 -79.4303 257° West 423 487 38,000  Level Washington Center
04:26PM 38.7739 -79.5939 258° West 423 487 38,000  Level Washington Center
04:27PM 38.7483 -79.7283 256° West 429 494 38,000  Level Washington Center
04:29PM 38.7153 -79.8881 255° West 425 489 38,000  Level Indianapolis Center
04:30PM 38.6875 -80.0372 257° West 430 495 38,000  Level Indianapolis Center
04:31PM 38.6597 -80.1847 256° West 428 493 38,000  Level Indianapolis Center
04:32PM 38.6272 -80.3617 257° West 425 489 38,000  Level Indianapolis Center
04:33PM 38.5881 -80.5081 251° West 432 497 38,000  Level Indianapolis Center
04:34PM 38.5494 -80.6528 251° West 430 495 38,000  Level Indianapolis Center
04:35PM 38.5083 -80.7994 250° West 435 501 38,000  Level Indianapolis Center
04:36PM 38.4681 -80.9458 251° West 436 502 38,000  Level Indianapolis Center
04:37PM 38.4275 -81.0931 251° West 437 503 38,000  Level Indianapolis Center
04:38PM 38.3861 -81.2422 251° West 440 506 38,000  Level Indianapolis Center
04:39PM 38.3361 -81.4222 251° West 445 512 38,000  Level Indianapolis Center
04:40PM 38.2933 -81.5725 250° West 447 514 38,000  Level Indianapolis Center
04:41PM 38.2517 -81.7225 251° West 447 514 38,000  Level Indianapolis Center
04:42PM 38.2094 -81.8706 250° West 445 512 38,000  Level Indianapolis Center
04:43PM 38.1658 -82.0167 249° West 442 509 38,000  Level Indianapolis Center
04:44PM 38.1247 -82.1636 250° West 442 509 38,000  Level Indianapolis Center
04:45PM 38.0767 -82.3344 250° West 438 504 38,000  Level Indianapolis Center
04:46PM 38.0339 -82.4797 250° West 439 505 38,000  Level Indianapolis Center
04:47PM 37.9917 -82.6239 250° West 437 503 38,000  Level Indianapolis Center
04:48PM 37.9492 -82.7672 249° West 435 501 38,000  Level Indianapolis Center
04:49PM 37.9075 -82.9122 250° West 437 503 38,000  Level Indianapolis Center
04:50PM 37.8569 -83.0853 250° West 447 514 38,000  Level Indianapolis Center
04:51PM 37.8131 -83.2311 249° West 445 512 38,000  Level Indianapolis Center
04:52PM 37.7689 -83.3767 249° West 444 511 38,000  Level Indianapolis Center
04:53PM 37.7250 -83.5206 249° West 441 507 38,000  Level Indianapolis Center
04:54PM 37.6806 -83.6650 249° West 441 507 38,000  Level Indianapolis Center
04:56PM 37.6297 -83.8342 249° West 443 510 38,000  Level Indianapolis Center
04:57PM 37.5847 -83.9775 248° West 441 507 38,000  Level Indianapolis Center
04:58PM 37.5408 -84.1242 249° West 445 512 38,000  Level Indianapolis Center
04:59PM 37.4953 -84.2686 248° West 445 512 38,000  Level Indianapolis Center
05:00PM 37.4492 -84.4144 248° West 447 514 38,000  Level Indianapolis Center
05:01PM 37.3950 -84.5842 248° West 449 517 38,000  Level Indianapolis Center
05:02PM 37.3506 -84.7297 249° West 447 514 38,000  Level Indianapolis Center
05:03PM 37.3053 -84.8717 248° West 440 506 38,000  Level Indianapolis Center
05:04PM 37.2606 -85.0133 248° West 437 503 38,000  Level Indianapolis Center
05:05PM 37.2153 -85.1547 248° West 437 503 38,000  Level Indianapolis Center
05:06PM 37.1614 -85.3181 248° West 435 501 38,000  Level Indianapolis Center
05:07PM 37.1158 -85.4581 248° West 433 498 38,000  Level Indianapolis Center
05:08PM 37.0731 -85.5939 248° West 433 498 38,000  Level Indianapolis Center
05:09PM 37.0244 -85.7308 246° West 430 495 38,000  Level Indianapolis Center
05:10PM 36.9653 -85.8617 241° Southwest 430 495 38,000  Level Indianapolis Center
05:11PM 36.8703 -85.9628 220° Southwest 452 520 38,000  Level Indianapolis Center
05:12PM 36.7433 -86.0594 211° Southwest 453 521 38,000  Level Indianapolis Center
05:13PM 36.6428 -86.1547 217° Southwest 450 518 38,000  Level Indianapolis Center
05:14PM 36.5550 -86.2419 219° Southwest 455 524 38,000  Level Memphis Center
05:15PM 36.4969 -86.3714 241° Southwest 438 504 38,000  Level Memphis Center
05:16PM 36.4578 -86.5178 252° West 439 505 38,000  Level Memphis Center
05:17PM 36.4203 -86.6561 251° West 432 497 38,000  Level Memphis Center
05:18PM 36.3783 -86.7947 249° West 442 509 38,000  Level Memphis Center
05:19PM 36.3344 -86.9358 249° West 453 521 38,000  Level Memphis Center
05:20PM 36.2969 -87.0892 253° West 471 542 38,000  Level Memphis Center
05:21PM 36.2528 -87.2378 250° West 448 516 38,000  Level Memphis Center
05:22PM 36.2103 -87.3783 249° West 436 502 38,000  Level Memphis Center
05:23PM 36.1697 -87.5186 250° West 431 496 38,000  Level Memphis Center
05:24PM 36.1292 -87.6589 250° West 431 496 38,000  Level Memphis Center
05:25PM 36.0864 -87.7989 249° West 431 496 38,000  Level Memphis Center
05:26PM 36.0472 -87.9361 251° West 431 496 38,000  Level Memphis Center
05:27PM 36.0061 -88.0758 250° West 433 498 38,000  Level Memphis Center
05:28PM 35.9686 -88.1925 248° West 420 483 38,000  Level Memphis Center
05:29PM 35.9231 -88.3344 248° West 420 483 38,000  Level Memphis Center
05:30PM 35.8814 -88.4714 249° West 431 496 38,000  Level Memphis Center
05:31PM 35.8375 -88.6081 248° West 431 496 38,000  Level Memphis Center
05:32PM 35.7958 -88.7497 250° West 431 496 38,000  Level Memphis Center
05:33PM 35.7517 -88.8886 249° West 431 496 38,000  Level Memphis Center
05:34PM 35.7094 -89.0275 250° West 431 496 38,000  Level Memphis Center
05:35PM 35.6672 -89.1817 251° West 431 496 38,000  Level Memphis Center
05:36PM 35.6225 -89.3175 248° West 431 496 38,000  Level Memphis Center
05:37PM 35.5797 -89.4586 250° West 437 503 38,000  Level Memphis Center
05:38PM 35.5389 -89.5942 250° West 432 497 38,000  Level Memphis Center
05:39PM 35.4939 -89.7347 249° West 437 503 38,000  Level Memphis Center
05:40PM 35.4508 -89.8728 249° West 437 503 38,000  Level Memphis Center
05:41PM 35.4053 -90.0081 248° West 430 495 38,000  Level Memphis Center
05:42PM 35.3617 -90.1508 250° West 436 502 38,000  Level Memphis Center
05:43PM 35.3161 -90.2883 248° West 441 507 38,000  Level Memphis Center
05:44PM 35.2764 -90.4131 249° West 436 502 38,000  Level Memphis Center
05:45PM 35.2306 -90.5478 247° West 436 502 38,000  Level Memphis Center
05:46PM 35.1864 -90.6847 248° West 436 502 38,000  Level Memphis Center
05:47PM 35.1422 -90.8192 248° West 430 495 38,000  Level Memphis Center
05:48PM 35.0956 -90.9536 247° West 436 502 38,000  Level Memphis Center
05:49PM 35.0511 -91.0875 248° West 430 495 38,000  Level Memphis Center
05:50PM 35.0064 -91.2192 248° West 430 495 38,000  Level Memphis Center
05:51PM 34.9639 -91.3531 249° West 430 495 38,000  Level Memphis Center
05:52PM 34.9144 -91.4967 247° West 425 489 38,000  Level Memphis Center
05:53PM 34.8778 -91.6381 252° West 425 489 38,000  Level Memphis Center
05:54PM 34.8367 -91.7714 249° West 433 498 38,000  Level Memphis Center
05:55PM 34.7975 -91.9072 251° West 433 498 38,000  Level Memphis Center
05:56PM 34.7581 -92.0431 251° West 433 498 38,000  Level Memphis Center
05:57PM 34.7167 -92.1814 250° West 428 493 38,000  Level Memphis Center
05:58PM 34.6769 -92.3219 251° West 434 499 38,000  Level Memphis Center
05:59PM 34.6372 -92.4572 250° West 434 499 38,000  Level Memphis Center
06:00PM 34.5950 -92.5975 250° West 440 506 38,000  Level Memphis Center
06:01PM 34.5572 -92.7303 251° West 446 513 38,000  Level Memphis Center
06:02PM 34.5192 -92.8603 250° West 441 507 38,000  Level Memphis Center
06:03PM 34.4767 -92.9950 249° West 441 507 38,000  Level Memphis Center
06:04PM 34.4339 -93.1372 250° West 441 507 38,000  Level Memphis Center
06:06PM 34.3728 -93.3525 251° West 428 493 38,000  Level Fort Worth Center
06:07PM 34.3311 -93.4928 250° West 438 504 38,000  Level Fort Worth Center
06:08PM 34.2861 -93.6558 252° West 438 504 38,000  Level Fort Worth Center
06:09PM 34.2486 -93.7956 252° West 438 504 38,000  Level Fort Worth Center
06:10PM 34.2106 -93.9278 251° West 432 497 38,000  Level Fort Worth Center
06:11PM 34.1706 -94.0650 251° West 432 497 38,000  Level Fort Worth Center
06:12PM 34.1322 -94.2019 251° West 432 497 38,000 -300 Level Fort Worth Center
06:13PM 34.1214 -94.3453 265° West 423 487 37,400 -780 Descending Fort Worth Center
06:14PM 34.1536 -94.4797 286° West 416 479 36,500 -960 Descending Fort Worth Center
06:15PM 34.1781 -94.6294 281° West 428 493 35,500 -960 Descending Fort Worth Center
06:16PM 34.1997 -94.7694 281° West 433 498 34,600 -960 Descending Fort Worth Center
06:17PM 34.1525 -94.9014 247° West 419 482 33,600 -1,800 Descending Fort Worth Center
06:18PM 34.0944 -95.0283 241° Southwest 425 489 31,100 -1,980 Descending Fort Worth Center
06:19PM 34.0342 -95.1603 241° Southwest 437 503 29,700 -1,380 Descending Fort Worth Center
06:20PM 33.9739 -95.2897 241° Southwest 449 517 28,400 -1,560 Descending Fort Worth Center
06:21PM 33.9156 -95.4161 241° Southwest 449 517 26,700 -1,680 Descending Fort Worth Center
06:22PM 33.8589 -95.5375 241° Southwest 434 499 25,100 -1,680 Descending Fort Worth Center
06:23PM 33.8022 -95.6589 241° Southwest 428 493 23,400 -1,740 Descending Fort Worth Center
06:24PM 33.7389 -95.7700 236° Southwest 415 478 21,700 -1,560 Descending Fort Worth Center
06:25PM 33.6922 -95.8581 238° Southwest 409 471 20,300 -2,340 Descending Fort Worth Center
06:26PM 33.6186 -95.9967 238° Southwest 404 465 17,100 -2,700 Descending Fort Worth Center
06:27PM 33.5614 -96.1047 238° Southwest 404 465 15,000 -2,400 Descending Fort Worth Center
06:28PM 33.4997 -96.2153 236° Southwest 398 458 12,300 -2,040 Descending Fort Worth Center
06:29PM 33.4422 -96.3206 237° Southwest 386 444 11,000 -660 Descending Fort Worth Center
06:30PM 33.3950 -96.4033 236° Southwest 337 388 11,000 -420 Level Fort Worth Center
06:30PM 33.3500 -96.4500 221° Southwest 303 349 10,400 -1,320 Descending Dallas / Fort Worth TRACON
06:31PM 33.3000 -96.5333 234° Southwest 297 342 8,900 -1,500 Descending Dallas / Fort Worth TRACON
06:32PM 33.2833 -96.6167 257° West 292 336 7,500 -1,320 Descending Dallas / Fort Worth TRACON
06:33PM 33.2500 -96.7000 244° Southwest 280 322 6,300 -1,320 Descending Dallas / Fort Worth TRACON
06:34PM 33.2167 -96.7833 244° Southwest 277 319 4,900 -660 Descending Dallas / Fort Worth TRACON
06:36PM 33.1850 -96.9022 252° West 267 307 4,800 -420 Descending Fort Worth Center
06:37PM 33.1394 -96.9419 216° Southwest 234 269 4,000 -1,080 Descending Fort Worth Center
06:37PM 33.1000 -96.9667 208° Southwest 224 258 3,100 -720 Descending Dallas / Fort Worth TRACON
06:38PM 33.0500 -97.0167 220° Southwest 212 244 2,900 -540 Descending Dallas / Fort Worth TRACON
06:39PM 33.0000 -97.0167 180° South 172 198 2,100 -840 Descending Dallas / Fort Worth TRACON
06:40PM 32.9500 -97.0167 180° South 156 180 1,300 -840 Descending Dallas / Fort Worth TRACON